Time;durP1;ratioP1;P1;durP2;ratioP2;P2;SDS_P1;SDS_P2;PMS_P1;PMS_P2;Temp;Humidity;BMP_temperature;BMP_pressure;BME280_temperature;BME280_humidity;BME280_pressure;Samples;Min_cycle;Max_cycle;Signal;HPM_P1;HPM_P2
2021/08/18 00:00:42;;;;;;;3.13;2.93;;;15.50;99.90;;;;;;5015920;28;20258;-75
2021/08/18 00:03:09;;;;;;;1.73;1.57;;;15.50;99.90;;;;;;5026998;28;20901;-74
2021/08/18 00:05:35;;;;;;;0.70;0.53;;;15.50;99.90;;;;;;5004921;28;20490;-76
2021/08/18 00:08:02;;;;;;;2.30;1.33;;;15.40;99.90;;;;;;5020693;28;20457;-76
2021/08/18 00:10:29;;;;;;;1.17;0.67;;;15.30;99.90;;;;;;5024809;28;20446;-77
2021/08/18 00:12:56;;;;;;;1.10;1.00;;;15.40;99.90;;;;;;5030349;28;20430;-76
2021/08/18 00:15:23;;;;;;;1.33;1.17;;;15.50;99.90;;;;;;5031147;28;20454;-76
2021/08/18 00:17:48;;;;;;;1.43;1.33;;;15.50;99.90;;;;;;5014882;28;20824;-75
2021/08/18 00:20:14;;;;;;;1.30;0.77;;;15.50;99.90;;;;;;5017546;28;20434;-75
2021/08/18 00:22:40;;;;;;;0.70;0.50;;;15.50;99.90;;;;;;5014386;28;20583;-76
2021/08/18 00:25:06;;;;;;;0.90;0.80;;;15.50;99.90;;;;;;5014566;28;20165;-76
2021/08/18 00:27:32;;;;;;;0.80;0.70;;;15.50;99.90;;;;;;5021973;28;20986;-77
2021/08/18 00:29:57;;;;;;;1.00;0.90;;;15.40;99.90;;;;;;5014506;28;20427;-76
2021/08/18 00:32:24;;;;;;;1.43;1.33;;;15.40;99.90;;;;;;5024476;28;20184;-76
2021/08/18 00:34:49;;;;;;;0.70;0.50;;;15.40;99.90;;;;;;5028810;28;20695;-76
2021/08/18 00:37:15;;;;;;;0.80;0.80;;;15.40;99.90;;;;;;5015549;28;20447;-74
2021/08/18 00:39:40;;;;;;;1.43;1.33;;;15.50;99.90;;;;;;5014540;28;20173;-76
2021/08/18 00:42:06;;;;;;;0.90;0.77;;;15.50;99.90;;;;;;5030894;28;20180;-76
2021/08/18 00:44:33;;;;;;;0.70;0.60;;;15.50;99.90;;;;;;5004977;28;20173;-75
2021/08/18 00:46:59;;;;;;;1.00;0.90;;;15.50;99.90;;;;;;5014276;28;20199;-76
2021/08/18 00:49:26;;;;;;;1.23;0.60;;;15.50;99.90;;;;;;5014404;28;20415;-76
2021/08/18 00:51:56;;;;;;;0.73;0.67;;;15.50;99.90;;;;;;5014350;28;20411;-76
2021/08/18 00:54:22;;;;;;;0.80;0.60;;;15.50;99.90;;;;;;5014143;28;20498;-76
2021/08/18 00:56:49;;;;;;;3.63;3.43;;;15.60;99.90;;;;;;5013858;28;20435;-76
2021/08/18 00:59:15;;;;;;;0.80;0.60;;;15.50;99.90;;;;;;5014310;28;20414;-76
2021/08/18 01:01:42;;;;;;;0.90;0.77;;;15.50;99.90;;;;;;5029997;28;20419;-76
2021/08/18 01:04:08;;;;;;;1.53;1.43;;;15.50;99.90;;;;;;4997092;28;20427;-75
2021/08/18 01:06:38;;;;;;;21.37;2.23;;;15.60;99.90;;;;;;5027906;28;20982;-77
2021/08/18 01:09:04;;;;;;;1.57;1.20;;;15.70;99.90;;;;;;5024644;28;20180;-75
2021/08/18 01:11:29;;;;;;;1.17;0.80;;;15.70;99.90;;;;;;5014064;28;20407;-75
2021/08/18 01:13:55;;;;;;;1.00;0.70;;;15.70;99.90;;;;;;5014558;28;20247;-77
2021/08/18 01:16:21;;;;;;;2.03;1.60;;;15.80;99.90;;;;;;5016684;28;20203;-77
2021/08/18 01:18:46;;;;;;;0.97;0.70;;;15.80;99.90;;;;;;5014257;28;20191;-76
2021/08/18 01:21:12;;;;;;;1.70;1.33;;;15.90;99.90;;;;;;5033038;28;20180;-76
2021/08/18 01:23:38;;;;;;;3.50;1.33;;;15.80;99.90;;;;;;5033573;28;20174;-76
2021/08/18 01:26:03;;;;;;;2.47;1.30;;;15.90;99.90;;;;;;5033264;28;20704;-76
2021/08/18 01:28:29;;;;;;;2.17;1.07;;;15.90;99.90;;;;;;5028377;28;20176;-77
2021/08/18 01:30:55;;;;;;;1.53;1.43;;;15.90;99.90;;;;;;5013558;28;20187;-77
2021/08/18 01:33:22;;;;;;;1.03;0.70;;;15.90;99.90;;;;;;5014105;28;20482;-76
2021/08/18 01:35:50;;;;;;;3.03;2.43;;;15.90;99.90;;;;;;4995418;28;20451;-77
2021/08/18 01:38:20;;;;;;;1.27;0.90;;;16.00;99.90;;;;;;5013552;28;20408;-77
2021/08/18 01:40:51;;;;;;;3.17;2.87;;;16.00;99.90;;;;;;4997484;28;20412;-77
2021/08/18 01:43:17;;;;;;;1.93;1.83;;;16.00;99.90;;;;;;5019187;28;20434;-77
2021/08/18 01:45:45;;;;;;;1.73;1.30;;;16.10;99.90;;;;;;5027403;28;20415;-76
2021/08/18 01:48:11;;;;;;;2.00;1.10;;;16.10;99.90;;;;;;5017993;28;20442;-76
2021/08/18 01:50:37;;;;;;;0.80;0.80;;;16.20;99.90;;;;;;5017671;28;20431;-76
2021/08/18 01:53:04;;;;;;;2.27;1.97;;;16.20;99.90;;;;;;5019445;28;20431;-76
2021/08/18 01:55:30;;;;;;;2.00;1.80;;;16.20;99.90;;;;;;5010848;28;20493;-77
2021/08/18 01:57:57;;;;;;;1.20;1.10;;;16.20;99.90;;;;;;5013598;28;20451;-75
2021/08/18 02:00:23;;;;;;;1.10;0.50;;;16.20;99.90;;;;;;5013097;28;20430;-76
2021/08/18 02:02:49;;;;;;;1.80;1.30;;;16.20;99.90;;;;;;5015932;28;20800;-77
2021/08/18 02:05:15;;;;;;;4.20;4.00;;;16.20;99.90;;;;;;5015108;28;20192;-77
2021/08/18 02:07:41;;;;;;;3.37;1.30;;;16.10;99.90;;;;;;5027206;28;20984;-75
2021/08/18 02:10:13;;;;;;;3.20;2.60;;;16.10;99.90;;;;;;5014441;28;20503;-77
2021/08/18 02:12:38;;;;;;;1.40;1.20;;;16.20;99.90;;;;;;5014669;28;20179;-77
2021/08/18 02:15:13;;;;;;;3.70;3.43;;;16.20;99.90;;;;;;5013525;28;20453;-77
2021/08/18 02:17:39;;;;;;;1.73;1.23;;;16.20;99.90;;;;;;5024902;28;22135;-77
2021/08/18 02:20:08;;;;;;;1.10;1.00;;;16.30;99.90;;;;;;5030883;28;20429;-77
2021/08/18 02:22:33;;;;;;;3.33;3.13;;;16.30;99.90;;;;;;5019795;28;20176;-77
2021/08/18 02:24:59;;;;;;;1.40;0.73;;;16.20;99.90;;;;;;5014146;28;20427;-77
2021/08/18 02:27:24;;;;;;;0.93;0.60;;;16.20;99.90;;;;;;5017143;28;20204;-76
2021/08/18 02:29:50;;;;;;;1.10;1.00;;;16.20;99.90;;;;;;5028615;28;20677;-77
2021/08/18 02:32:16;;;;;;;2.50;1.63;;;16.20;99.90;;;;;;5012944;28;20187;-74
2021/08/18 02:34:41;;;;;;;1.13;0.97;;;16.20;99.90;;;;;;5016379;28;20475;-77
2021/08/18 02:37:07;;;;;;;2.17;1.00;;;16.20;99.90;;;;;;5012138;28;20200;-77
2021/08/18 02:39:32;;;;;;;0.83;0.83;;;16.20;99.90;;;;;;5012376;28;20188;-76
2021/08/18 02:41:58;;;;;;;2.03;1.80;;;16.30;99.90;;;;;;5012561;28;20669;-76
2021/08/18 02:44:24;;;;;;;1.23;0.97;;;16.30;99.90;;;;;;5016473;28;20199;-77
2021/08/18 02:46:50;;;;;;;0.90;0.60;;;16.30;99.90;;;;;;5020237;28;20777;-75
2021/08/18 02:49:17;;;;;;;1.20;0.80;;;16.30;99.90;;;;;;5016661;28;20180;-76
2021/08/18 02:51:43;;;;;;;1.37;1.17;;;16.30;99.90;;;;;;5011479;28;20266;-73
2021/08/18 02:54:09;;;;;;;1.27;0.90;;;16.40;99.90;;;;;;5019996;28;20461;-74
2021/08/18 02:56:34;;;;;;;2.13;1.60;;;16.40;99.90;;;;;;5015349;28;20218;-73
2021/08/18 02:59:00;;;;;;;1.30;0.70;;;16.40;99.90;;;;;;5019008;28;20178;-73
2021/08/18 03:01:25;;;;;;;2.20;2.10;;;16.40;99.90;;;;;;5026349;28;20208;-74
2021/08/18 03:03:51;;;;;;;0.70;0.63;;;16.40;99.90;;;;;;5013038;28;20175;-76
2021/08/18 03:06:16;;;;;;;1.53;1.20;;;16.40;99.90;;;;;;5014351;28;20212;-77
2021/08/18 03:08:42;;;;;;;2.53;2.40;;;16.40;99.90;;;;;;5020648;28;20179;-74
2021/08/18 03:11:07;;;;;;;1.10;1.00;;;16.40;99.90;;;;;;5021248;28;20184;-74
2021/08/18 03:13:33;;;;;;;1.00;1.00;;;16.40;99.90;;;;;;5014574;28;20207;-75
2021/08/18 03:15:58;;;;;;;1.40;1.10;;;16.40;99.90;;;;;;5016904;28;20293;-74
2021/08/18 03:18:24;;;;;;;2.67;1.37;;;16.40;99.90;;;;;;5014832;28;20179;-77
2021/08/18 03:20:49;;;;;;;2.37;1.50;;;16.50;99.90;;;;;;5013493;28;20176;-76
2021/08/18 03:23:15;;;;;;;1.40;1.30;;;16.50;99.90;;;;;;5011908;28;20179;-73
2021/08/18 03:25:40;;;;;;;1.50;1.40;;;16.40;99.90;;;;;;5012789;28;20226;-76
2021/08/18 03:28:06;;;;;;;1.60;1.50;;;16.50;99.90;;;;;;5011983;28;20207;-76
2021/08/18 03:30:32;;;;;;;1.67;1.40;;;16.40;99.90;;;;;;5011466;28;20207;-73
2021/08/18 03:32:57;;;;;;;1.43;1.33;;;16.40;99.90;;;;;;5012056;28;20200;-74
2021/08/18 03:35:23;;;;;;;2.33;2.23;;;16.40;99.90;;;;;;5009093;28;20202;-73
2021/08/18 03:37:48;;;;;;;0.80;0.80;;;16.30;99.90;;;;;;5013763;28;20204;-73
2021/08/18 03:40:14;;;;;;;1.00;0.80;;;16.30;99.90;;;;;;5014514;28;20180;-76
2021/08/18 03:42:40;;;;;;;0.70;0.63;;;16.30;99.90;;;;;;5031535;28;20168;-76
2021/08/18 03:45:05;;;;;;;1.80;1.70;;;16.30;99.90;;;;;;5021171;28;21511;-73
2021/08/18 03:47:31;;;;;;;1.57;1.37;;;16.30;99.90;;;;;;5022575;28;20214;-73
2021/08/18 03:49:56;;;;;;;1.37;0.73;;;16.30;99.90;;;;;;5012472;28;20283;-73
2021/08/18 03:52:22;;;;;;;0.73;0.67;;;16.40;99.90;;;;;;5011444;28;20552;-74
2021/08/18 03:54:47;;;;;;;2.30;0.90;;;16.30;99.90;;;;;;5012631;28;20680;-76
2021/08/18 03:57:13;;;;;;;0.80;0.70;;;16.30;99.90;;;;;;5026835;28;20204;-76
2021/08/18 03:59:38;;;;;;;1.90;1.07;;;16.30;99.90;;;;;;5014428;28;20264;-76
2021/08/18 04:02:04;;;;;;;0.70;0.50;;;16.30;99.90;;;;;;5011315;28;20176;-75
2021/08/18 04:04:30;;;;;;;1.03;0.90;;;16.40;99.90;;;;;;5015041;28;20290;-76
2021/08/18 04:06:55;;;;;;;0.80;0.60;;;16.40;99.90;;;;;;5008006;28;20594;-73
2021/08/18 04:09:21;;;;;;;1.40;1.30;;;16.50;99.90;;;;;;5015146;28;20867;-75
2021/08/18 04:11:46;;;;;;;0.70;0.70;;;16.50;99.90;;;;;;5024297;28;20226;-76
2021/08/18 04:14:12;;;;;;;0.90;0.80;;;16.40;99.90;;;;;;5034462;28;20664;-75
2021/08/18 04:16:38;;;;;;;0.83;0.83;;;16.40;99.90;;;;;;5032488;28;20208;-76
2021/08/18 04:19:03;;;;;;;0.80;0.70;;;16.30;99.90;;;;;;5025330;28;20171;-73
2021/08/18 04:21:29;;;;;;;1.03;0.93;;;16.30;99.90;;;;;;5017803;28;20954;-76
2021/08/18 04:23:56;;;;;;;3.13;2.93;;;16.30;99.90;;;;;;5015818;28;20283;-76
2021/08/18 04:26:21;;;;;;;0.87;0.87;;;16.40;99.90;;;;;;5014450;28;20546;-76
2021/08/18 04:28:47;;;;;;;1.17;1.07;;;16.40;99.90;;;;;;5014246;28;20221;-75
2021/08/18 04:31:12;;;;;;;0.80;0.73;;;16.30;99.90;;;;;;5023330;28;20194;-73
2021/08/18 04:33:38;;;;;;;1.33;1.17;;;16.40;99.90;;;;;;5030179;28;20633;-73
2021/08/18 04:36:04;;;;;;;1.00;0.80;;;16.30;99.90;;;;;;5028222;28;20258;-74
2021/08/18 04:38:30;;;;;;;1.10;1.03;;;16.30;99.90;;;;;;5013412;28;20168;-76
2021/08/18 04:40:55;;;;;;;0.87;0.87;;;16.40;99.90;;;;;;5026659;28;20489;-74
2021/08/18 04:43:21;;;;;;;2.17;2.00;;;16.50;99.90;;;;;;5031574;28;20175;-73
2021/08/18 04:45:46;;;;;;;4.33;1.43;;;16.50;99.90;;;;;;5012810;28;20180;-73
2021/08/18 04:48:12;;;;;;;2.27;1.63;;;16.40;99.90;;;;;;5026746;28;20172;-73
2021/08/18 04:50:38;;;;;;;1.00;0.90;;;16.40;99.90;;;;;;5014355;28;20183;-74
2021/08/18 04:53:07;;;;;;;2.03;1.33;;;16.40;99.90;;;;;;5030452;28;20175;-74
2021/08/18 04:55:32;;;;;;;4.03;1.80;;;16.50;99.90;;;;;;5033308;28;20552;-73
2021/08/18 04:57:58;;;;;;;2.10;1.90;;;16.40;99.90;;;;;;5029117;28;20452;-75
2021/08/18 05:00:23;;;;;;;3.13;2.83;;;16.50;99.90;;;;;;5031590;28;20580;-76
2021/08/18 05:02:49;;;;;;;1.87;1.70;;;16.50;99.90;;;;;;5031611;28;20175;-77
2021/08/18 05:05:14;;;;;;;2.70;1.63;;;16.60;99.90;;;;;;5017116;28;20183;-75
2021/08/18 05:07:40;;;;;;;1.60;1.40;;;16.60;99.90;;;;;;5019156;28;20242;-75
2021/08/18 05:10:06;;;;;;;1.30;1.20;;;16.50;99.90;;;;;;5013842;28;20199;-76
2021/08/18 05:12:32;;;;;;;3.67;3.47;;;16.60;99.90;;;;;;5013580;28;20187;-75
2021/08/18 05:14:57;;;;;;;5.50;4.30;;;16.50;99.90;;;;;;5014280;28;21000;-76
2021/08/18 05:17:23;;;;;;;2.03;1.70;;;16.40;99.90;;;;;;5013550;28;20207;-75
2021/08/18 05:19:48;;;;;;;2.70;0.90;;;16.50;99.90;;;;;;5018932;28;20546;-76
2021/08/18 05:22:14;;;;;;;1.67;1.57;;;16.50;99.90;;;;;;5021025;28;20637;-75
2021/08/18 05:24:40;;;;;;;1.80;1.70;;;16.50;99.90;;;;;;5014797;28;20184;-76
2021/08/18 05:27:06;;;;;;;4.97;2.43;;;16.50;99.90;;;;;;5027894;28;20461;-76
2021/08/18 05:29:31;;;;;;;2.47;2.27;;;16.50;99.90;;;;;;5029420;28;20258;-73
2021/08/18 05:31:57;;;;;;;1.33;1.23;;;16.50;99.90;;;;;;5026167;28;20179;-73
2021/08/18 05:34:22;;;;;;;0.80;0.73;;;16.50;99.90;;;;;;5021714;28;20176;-75
2021/08/18 05:36:48;;;;;;;1.80;1.70;;;16.60;99.90;;;;;;5022890;28;20204;-73
2021/08/18 05:39:13;;;;;;;1.17;1.07;;;16.70;99.90;;;;;;5017422;28;20176;-73
2021/08/18 05:41:39;;;;;;;5.00;4.80;;;16.70;99.90;;;;;;5030828;28;20671;-76
2021/08/18 05:44:05;;;;;;;1.27;1.17;;;16.70;99.90;;;;;;5031614;28;20621;-74
2021/08/18 05:46:30;;;;;;;2.63;2.53;;;16.70;99.90;;;;;;5013436;28;20203;-74
2021/08/18 05:48:56;;;;;;;2.73;1.83;;;16.70;99.90;;;;;;5011462;28;21898;-75
2021/08/18 05:51:21;;;;;;;0.90;0.70;;;16.70;99.90;;;;;;5017706;28;20176;-71
2021/08/18 05:53:50;;;;;;;0.80;0.80;;;16.70;99.90;;;;;;5015863;28;20659;-74
2021/08/18 05:56:19;;;;;;;1.43;1.23;;;16.70;99.90;;;;;;5024783;28;20220;-72
2021/08/18 05:58:44;;;;;;;2.17;1.13;;;16.70;99.90;;;;;;5012458;28;20924;-73
2021/08/18 06:01:10;;;;;;;1.43;1.33;;;16.80;99.90;;;;;;4996752;28;20445;-73
2021/08/18 06:03:36;;;;;;;1.07;0.97;;;16.90;99.90;;;;;;5011986;28;20183;-74
2021/08/18 06:06:02;;;;;;;1.43;1.33;;;16.90;99.90;;;;;;5012313;28;20642;-73
2021/08/18 06:08:27;;;;;;;1.57;1.47;;;16.90;99.90;;;;;;5012548;28;20485;-73
2021/08/18 06:10:53;;;;;;;4.60;1.47;;;17.00;99.90;;;;;;5012650;28;20188;-72
2021/08/18 06:13:18;;;;;;;1.10;0.80;;;17.00;99.90;;;;;;5025457;28;20190;-73
2021/08/18 06:15:44;;;;;;;2.13;1.50;;;17.10;99.90;;;;;;5025382;28;20206;-73
2021/08/18 06:18:10;;;;;;;0.80;0.67;;;17.10;99.90;;;;;;5014814;28;20191;-74
2021/08/18 06:20:35;;;;;;;1.97;1.53;;;17.20;99.90;;;;;;5013354;28;20306;-75
2021/08/18 06:23:01;;;;;;;3.23;1.33;;;17.20;99.90;;;;;;5012686;28;20212;-75
2021/08/18 06:25:27;;;;;;;3.47;3.07;;;17.20;99.90;;;;;;4998491;28;20187;-75
2021/08/18 06:27:52;;;;;;;1.70;1.60;;;17.30;99.90;;;;;;4994816;28;20223;-74
2021/08/18 06:30:18;;;;;;;1.97;0.87;;;17.40;99.90;;;;;;5015524;28;20184;-73
2021/08/18 06:32:43;;;;;;;1.57;1.20;;;17.30;99.90;;;;;;5011396;28;20263;-71
2021/08/18 06:35:09;;;;;;;1.30;0.90;;;17.50;99.90;;;;;;5029576;28;20660;-75
2021/08/18 06:37:35;;;;;;;1.63;1.40;;;17.50;99.90;;;;;;5013194;28;20196;-72
2021/08/18 06:40:03;;;;;;;1.80;1.70;;;17.40;99.90;;;;;;5031896;28;20410;-73
2021/08/18 06:42:29;;;;;;;8.20;1.57;;;17.60;99.90;;;;;;5016029;28;20545;-73
2021/08/18 06:44:55;;;;;;;0.70;0.67;;;17.70;99.90;;;;;;5012938;28;20455;-74
2021/08/18 06:47:20;;;;;;;1.53;1.20;;;17.70;99.90;;;;;;5025652;28;20556;-73
2021/08/18 06:49:46;;;;;;;0.80;0.70;;;17.80;99.90;;;;;;5026566;28;20221;-70
2021/08/18 06:52:11;;;;;;;1.47;1.37;;;17.90;99.90;;;;;;5024569;28;20184;-72
2021/08/18 06:54:37;;;;;;;0.77;0.70;;;18.00;99.90;;;;;;4994260;28;20587;-73
2021/08/18 06:57:03;;;;;;;1.80;1.27;;;17.90;99.90;;;;;;5015653;28;20199;-73
2021/08/18 06:59:30;;;;;;;0.97;0.90;;;18.10;99.90;;;;;;5017410;28;20179;-74
2021/08/18 07:01:55;;;;;;;3.33;1.53;;;18.10;99.90;;;;;;5013614;28;20912;-72
2021/08/18 07:04:22;;;;;;;1.80;1.10;;;18.30;99.90;;;;;;5011843;28;20444;-74
2021/08/18 07:06:47;;;;;;;1.20;1.10;;;18.30;99.90;;;;;;5015571;28;20574;-74
2021/08/18 07:09:13;;;;;;;4.20;1.20;;;18.20;99.90;;;;;;5011753;28;20490;-74
2021/08/18 07:11:39;;;;;;;2.87;1.43;;;18.20;99.90;;;;;;5011623;28;20195;-72
2021/08/18 07:14:05;;;;;;;2.23;1.23;;;18.20;99.90;;;;;;5012075;28;20263;-71
2021/08/18 07:16:33;;;;;;;1.30;0.90;;;18.30;99.90;;;;;;5019877;28;20234;-72
2021/08/18 07:18:59;;;;;;;2.07;0.83;;;18.30;99.90;;;;;;5025899;28;20940;-74
2021/08/18 07:21:26;;;;;;;2.53;2.23;;;18.40;99.90;;;;;;5016907;28;20431;-72
2021/08/18 07:23:53;;;;;;;1.17;1.07;;;18.30;99.90;;;;;;5011241;28;20435;-74
2021/08/18 07:26:21;;;;;;;1.67;1.27;;;18.40;99.90;;;;;;5010762;28;20846;-76
2021/08/18 07:28:47;;;;;;;2.80;2.60;;;18.50;99.90;;;;;;5014416;28;20453;-76
2021/08/18 07:31:13;;;;;;;2.03;1.63;;;18.50;99.90;;;;;;5013821;28;20987;-76
2021/08/18 07:33:39;;;;;;;10.73;3.90;;;18.60;99.90;;;;;;5013045;28;20439;-75
2021/08/18 07:36:04;;;;;;;4.10;1.53;;;18.60;99.90;;;;;;5021362;28;21060;-73
2021/08/18 07:38:30;;;;;;;1.40;1.30;;;18.60;99.90;;;;;;5012158;28;20196;-75
2021/08/18 07:40:56;;;;;;;1.40;1.30;;;18.60;99.90;;;;;;5011592;28;20263;-73
2021/08/18 07:43:21;;;;;;;1.77;1.57;;;18.70;99.90;;;;;;5014259;28;20672;-73
2021/08/18 07:45:47;;;;;;;1.87;1.23;;;18.70;99.90;;;;;;5027383;28;20211;-72
2021/08/18 07:48:13;;;;;;;1.00;0.90;;;18.80;99.90;;;;;;5017704;28;20176;-75
2021/08/18 07:50:38;;;;;;;1.23;1.13;;;18.90;99.90;;;;;;5005998;28;20649;-72
2021/08/18 07:53:04;;;;;;;2.07;1.37;;;18.90;99.90;;;;;;5026100;28;20670;-72
2021/08/18 07:55:29;;;;;;;1.63;1.07;;;18.90;99.90;;;;;;5015006;28;20200;-72
2021/08/18 07:57:55;;;;;;;3.40;1.67;;;18.90;99.90;;;;;;5015208;28;20606;-75
2021/08/18 08:00:20;;;;;;;3.40;1.90;;;19.00;99.90;;;;;;5010700;28;20234;-74
2021/08/18 08:02:46;;;;;;;2.33;1.80;;;19.00;99.90;;;;;;5014614;28;20389;-72
2021/08/18 08:05:13;;;;;;;2.70;1.10;;;19.00;99.90;;;;;;5023004;28;20172;-72
2021/08/18 08:07:39;;;;;;;1.00;0.90;;;18.90;99.90;;;;;;5015957;28;20200;-72
2021/08/18 08:10:06;;;;;;;1.30;1.10;;;19.00;99.90;;;;;;5023488;28;20931;-73
2021/08/18 08:12:32;;;;;;;1.90;1.23;;;19.00;99.90;;;;;;5034895;28;20191;-71
2021/08/18 08:14:58;;;;;;;1.03;0.93;;;18.90;99.90;;;;;;5013589;28;20527;-75
2021/08/18 08:17:24;;;;;;;2.47;2.27;;;19.00;99.90;;;;;;5018059;28;20446;-74
2021/08/18 08:19:49;;;;;;;3.50;1.93;;;19.00;99.90;;;;;;5018511;28;20215;-75
2021/08/18 08:22:15;;;;;;;3.33;2.17;;;19.00;99.90;;;;;;5009253;28;20426;-74
2021/08/18 08:24:40;;;;;;;1.57;1.47;;;18.90;99.90;;;;;;5012445;28;20183;-73
2021/08/18 08:27:06;;;;;;;1.37;1.27;;;18.90;99.90;;;;;;5033504;28;20191;-72
2021/08/18 08:29:32;;;;;;;1.63;0.97;;;18.80;99.90;;;;;;5029168;28;20169;-72
2021/08/18 08:31:57;;;;;;;1.73;1.63;;;18.90;99.90;;;;;;5023686;28;20203;-74
2021/08/18 08:34:23;;;;;;;2.27;1.87;;;18.80;99.90;;;;;;5011807;28;20172;-74
2021/08/18 08:36:49;;;;;;;3.37;3.07;;;18.80;99.90;;;;;;5012658;28;20204;-74
2021/08/18 08:39:14;;;;;;;2.73;0.90;;;18.90;99.90;;;;;;5014673;28;20207;-73
2021/08/18 08:41:43;;;;;;;1.27;1.17;;;18.80;99.90;;;;;;5029763;28;20496;-76
2021/08/18 08:44:17;;;;;;;0.80;0.60;;;18.60;99.90;;;;;;5013702;28;20168;-73
2021/08/18 08:46:45;;;;;;;1.27;1.17;;;18.50;99.90;;;;;;5009717;28;20530;-76
2021/08/18 08:49:11;;;;;;;1.00;0.70;;;18.60;99.90;;;;;;5013681;28;20445;-75
2021/08/18 08:51:37;;;;;;;5.83;0.83;;;18.50;99.90;;;;;;5022269;28;20433;-73
2021/08/18 08:54:03;;;;;;;0.90;0.77;;;18.50;99.90;;;;;;4996043;28;20419;-76
2021/08/18 08:56:28;;;;;;;0.97;0.87;;;18.70;99.90;;;;;;5014126;28;20239;-75
2021/08/18 08:58:54;;;;;;;1.23;0.80;;;18.60;99.90;;;;;;5015878;28;20183;-75
2021/08/18 09:01:19;;;;;;;0.77;0.57;;;18.80;99.90;;;;;;5020162;28;20179;-77
2021/08/18 09:03:46;;;;;;;0.80;0.77;;;18.90;99.90;;;;;;4996413;28;20216;-77
2021/08/18 09:06:18;;;;;;;0.70;0.50;;;18.90;99.90;;;;;;5011214;28;20199;-77
2021/08/18 09:08:51;;;;;;;0.80;0.80;;;19.10;99.90;;;;;;5030861;28;20406;-77
2021/08/18 09:11:18;;;;;;;1.00;0.70;;;19.20;99.90;;;;;;4996954;28;20854;-77
2021/08/18 09:13:50;;;;;;;0.70;0.60;;;19.40;99.90;;;;;;5013972;28;20434;-75
2021/08/18 09:16:19;;;;;;;0.97;0.90;;;19.40;99.90;;;;;;5013702;28;20470;-77
2021/08/18 09:18:53;;;;;;;1.20;0.80;;;19.50;99.90;;;;;;5024975;28;20475;-75
2021/08/18 09:21:37;;;;;;;1.10;1.00;;;19.60;99.90;;;;;;5011850;28;20488;-77
2021/08/18 09:24:11;;;;;;;2.07;1.13;;;19.70;99.90;;;;;;5029307;28;20503;-76
2021/08/18 09:26:43;;;;;;;2.50;1.27;;;19.60;99.90;;;;;;5015046;28;20457;-77
2021/08/18 09:29:09;;;;;;;1.00;0.60;;;19.60;99.90;;;;;;5013584;28;20441;-77
2021/08/18 09:31:35;;;;;;;1.10;0.70;;;19.40;99.90;;;;;;5012979;28;20513;-76
2021/08/18 09:34:00;;;;;;;2.60;1.00;;;19.30;99.90;;;;;;5012681;28;21030;-74
2021/08/18 09:36:29;;;;;;;2.13;1.13;;;19.30;99.90;;;;;;5016710;28;20739;-77
2021/08/18 09:39:20;;;;;;;1.80;0.80;;;19.40;99.90;;;;;;5014863;28;20207;-77
2021/08/18 09:41:45;;;;;;;1.40;1.00;;;19.50;99.90;;;;;;5013545;28;20932;-76
2021/08/18 09:44:11;;;;;;;0.83;0.83;;;19.50;99.90;;;;;;5017778;28;20506;-76
2021/08/18 09:46:37;;;;;;;2.60;1.67;;;19.50;99.90;;;;;;5016603;28;20204;-75
2021/08/18 09:49:06;;;;;;;0.90;0.90;;;19.70;99.90;;;;;;5017332;28;20180;-76
2021/08/18 09:51:32;;;;;;;1.40;1.07;;;19.90;99.90;;;;;;5029926;28;20171;-77
2021/08/18 09:54:10;;;;;;;1.33;1.00;;;20.20;99.90;;;;;;5026965;28;20578;-77
2021/08/18 09:56:47;;;;;;;1.93;1.23;;;20.40;99.90;;;;;;5001515;28;20235;-77
2021/08/18 09:59:13;;;;;;;1.93;1.67;;;20.70;99.90;;;;;;5017087;28;20477;-77
2021/08/18 10:01:40;;;;;;;2.30;1.73;;;20.90;99.90;;;;;;5014823;28;20427;-77
2021/08/18 10:04:06;;;;;;;6.23;2.20;;;21.30;99.90;;;;;;5019471;28;20781;-76
2021/08/18 10:06:32;;;;;;;1.90;1.70;;;21.50;99.90;;;;;;5020520;28;20526;-77
2021/08/18 10:08:58;;;;;;;1.40;1.20;;;21.60;99.90;;;;;;5030229;28;20875;-75
2021/08/18 10:11:25;;;;;;;1.20;0.70;;;21.90;99.90;;;;;;5029377;28;20473;-77
2021/08/18 10:13:52;;;;;;;0.70;0.60;;;21.90;99.90;;;;;;5031315;28;20179;-77
2021/08/18 10:16:19;;;;;;;0.80;0.60;;;21.80;99.90;;;;;;5030102;28;21058;-75
2021/08/18 10:18:46;;;;;;;0.70;0.57;;;21.80;99.90;;;;;;5024622;28;20422;-76
2021/08/18 10:21:22;;;;;;;0.77;0.63;;;21.50;99.90;;;;;;5021988;28;20434;-76
2021/08/18 10:24:01;;;;;;;0.90;0.70;;;21.50;99.90;;;;;;5013397;28;20427;-77
2021/08/18 10:26:47;;;;;;;0.80;0.70;;;21.50;99.90;;;;;;5013290;28;20457;-76
2021/08/18 10:29:34;;;;;;;1.10;0.77;;;21.40;99.90;;;;;;5015209;28;20428;-76
2021/08/18 10:32:03;;;;;;;0.90;0.73;;;21.30;99.90;;;;;;5006902;28;20960;-76
2021/08/18 10:34:37;;;;;;;1.63;1.53;;;21.20;99.90;;;;;;5017749;28;20792;-75
2021/08/18 10:37:16;;;;;;;0.80;0.60;;;21.20;99.90;;;;;;5031685;28;20453;-76
2021/08/18 10:39:52;;;;;;;0.97;0.70;;;21.20;99.90;;;;;;5027404;28;20986;-74
2021/08/18 10:42:21;;;;;;;0.70;0.60;;;21.10;99.90;;;;;;5014654;28;20403;-76
2021/08/18 10:44:53;;;;;;;1.53;1.43;;;20.90;99.90;;;;;;5026316;28;20481;-75
2021/08/18 10:47:34;;;;;;;1.33;1.23;;;20.90;99.90;;;;;;5013241;28;20450;-73
2021/08/18 10:50:12;;;;;;;0.80;0.70;;;20.90;99.90;;;;;;5016254;28;20422;-77
2021/08/18 10:52:37;;;;;;;1.20;1.07;;;20.90;99.90;;;;;;5015423;28;20919;-76
2021/08/18 10:55:08;;;;;;;1.83;0.80;;;21.00;99.90;;;;;;5011624;28;20461;-76
2021/08/18 10:57:38;;;;;;;0.73;0.57;;;21.00;99.90;;;;;;5014027;28;20188;-77
2021/08/18 11:00:34;;;;;;;1.23;1.13;;;21.10;99.90;;;;;;5020772;28;20423;-77
2021/08/18 11:03:17;;;;;;;0.80;0.70;;;21.10;99.90;;;;;;5014039;28;20804;-76
2021/08/18 11:05:49;;;;;;;3.13;0.70;;;21.30;99.90;;;;;;5020914;28;20431;-75
2021/08/18 11:08:18;;;;;;;1.37;1.27;;;21.40;99.90;;;;;;5014145;28;20430;-77
2021/08/18 11:10:55;;;;;;;0.80;0.63;;;21.40;99.90;;;;;;5031135;28;20434;-76
2021/08/18 11:13:39;;;;;;;1.50;1.40;;;21.50;99.90;;;;;;5029833;28;20529;-77
2021/08/18 11:16:29;;;;;;;0.80;0.67;;;21.50;99.90;;;;;;5013483;28;20567;-77
2021/08/18 11:18:56;;;;;;;0.80;0.80;;;21.60;99.90;;;;;;5019370;28;20791;-77
2021/08/18 11:21:31;;;;;;;4.73;1.10;;;21.70;99.90;;;;;;5017566;28;20459;-75
2021/08/18 11:24:05;;;;;;;3.10;1.27;;;21.70;99.90;;;;;;5018206;28;20449;-76
2021/08/18 11:26:34;;;;;;;1.10;1.00;;;21.80;99.90;;;;;;5016331;28;20462;-74
2021/08/18 11:29:11;;;;;;;1.40;1.20;;;22.00;99.90;;;;;;5009847;28;20813;-76
2021/08/18 11:31:49;;;;;;;0.97;0.87;;;22.10;99.90;;;;;;5035623;28;20441;-77
2021/08/18 11:34:27;;;;;;;2.80;1.83;;;22.20;99.90;;;;;;5000237;28;20437;-76
2021/08/18 11:37:05;;;;;;;0.83;0.70;;;22.30;99.90;;;;;;5014202;28;20545;-77
2021/08/18 11:39:34;;;;;;;2.30;1.77;;;22.30;99.90;;;;;;5026070;28;20419;-76
2021/08/18 11:42:07;;;;;;;1.43;1.33;;;22.40;99.90;;;;;;5038497;28;20410;-77
2021/08/18 11:44:33;;;;;;;1.80;1.47;;;21.90;99.90;;;;;;5029308;28;20421;-77
2021/08/18 11:47:28;;;;;;;2.50;1.77;;;21.80;99.90;;;;;;5019979;28;20488;-76
2021/08/18 11:49:54;;;;;;;1.20;1.00;;;21.70;99.90;;;;;;5002104;28;20210;-77
2021/08/18 11:52:22;;;;;;;1.10;0.67;;;21.70;99.90;;;;;;5031687;28;20434;-74
2021/08/18 11:54:56;;;;;;;1.30;1.00;;;21.60;99.90;;;;;;5016646;28;20184;-76
2021/08/18 11:57:22;;;;;;;1.10;1.00;;;21.60;99.90;;;;;;5026621;28;20447;-78
2021/08/18 11:59:55;;;;;;;2.80;1.53;;;21.80;99.90;;;;;;5018033;28;20443;-75
2021/08/18 12:02:25;;;;;;;1.10;1.00;;;21.90;99.90;;;;;;5020456;28;20418;-75
2021/08/18 12:04:55;;;;;;;1.60;1.07;;;22.00;99.90;;;;;;5024541;28;20418;-76
2021/08/18 12:07:21;;;;;;;1.63;0.80;;;22.00;99.90;;;;;;5034343;28;21170;-76
2021/08/18 12:10:07;;;;;;;1.70;1.17;;;22.00;99.90;;;;;;5037444;28;20605;-77
2021/08/18 12:12:33;;;;;;;1.43;1.10;;;22.20;99.90;;;;;;5035593;28;20422;-75
2021/08/18 12:15:11;;;;;;;1.90;1.00;;;22.30;99.90;;;;;;5033247;28;20540;-77
2021/08/18 12:17:39;;;;;;;1.73;0.93;;;22.40;99.90;;;;;;5037179;28;20183;-75
2021/08/18 12:20:21;;;;;;;0.80;0.80;;;22.50;99.90;;;;;;5034671;28;20440;-77
2021/08/18 12:22:47;;;;;;;1.20;1.07;;;22.60;99.90;;;;;;5037261;28;20399;-78
2021/08/18 12:25:14;;;;;;;0.80;0.70;;;22.40;99.90;;;;;;5015799;28;20448;-77
2021/08/18 12:27:40;;;;;;;1.43;1.33;;;22.30;99.90;;;;;;5019407;28;20255;-76
2021/08/18 12:30:11;;;;;;;0.83;0.80;;;22.00;99.90;;;;;;5027077;28;20449;-77
2021/08/18 12:32:38;;;;;;;2.60;1.63;;;21.60;99.90;;;;;;5005728;28;20552;-77
2021/08/18 12:35:10;;;;;;;1.20;1.10;;;21.40;99.90;;;;;;5022951;28;20474;-75
2021/08/18 12:37:41;;;;;;;0.70;0.60;;;21.30;99.90;;;;;;5016369;28;20442;-76
2021/08/18 12:40:18;;;;;;;1.57;1.47;;;21.10;99.90;;;;;;5019085;28;20446;-76
2021/08/18 12:42:57;;;;;;;1.83;0.90;;;20.90;99.90;;;;;;5020376;28;20427;-76
2021/08/18 12:45:28;;;;;;;2.00;1.07;;;20.50;99.90;;;;;;5018210;28;20437;-76
2021/08/18 12:47:55;;;;;;;0.80;0.67;;;20.40;99.90;;;;;;5019121;28;20550;-75
2021/08/18 12:50:31;;;;;;;4.70;2.20;;;20.30;99.90;;;;;;5006188;28;20479;-76